Time;durP1;ratioP1;P1;durP2;ratioP2;P2;SDS_P1;SDS_P2;PMS_P1;PMS_P2;Temp;Humidity;BMP_temperature;BMP_pressure;BME280_temperature;BME280_humidity;BME280_pressure;Samples;Min_cycle;Max_cycle;Signal;HPM_P1;HPM_P2
2023/03/13 00:02:18;;;;;;;1.73;1.50;;;8.70;98.00;;;;;;5033659;28;20809;-70
2023/03/13 00:04:50;;;;;;;2.23;1.47;;;8.80;98.00;;;;;;5033836;28;20529;-70
2023/03/13 00:07:17;;;;;;;3.40;1.50;;;8.70;98.00;;;;;;5033804;28;20866;-70
2023/03/13 00:09:45;;;;;;;1.60;1.33;;;8.70;98.00;;;;;;5033073;28;20456;-70
2023/03/13 00:12:12;;;;;;;2.03;1.70;;;8.70;98.00;;;;;;5033401;28;20464;-70
2023/03/13 00:14:39;;;;;;;4.07;1.60;;;8.70;98.00;;;;;;5033501;28;20488;-70
2023/03/13 00:17:07;;;;;;;3.80;1.83;;;8.70;98.00;;;;;;5032793;28;20476;-70
2023/03/13 00:19:34;;;;;;;1.80;1.30;;;8.60;98.00;;;;;;5033081;28;20458;-70
2023/03/13 00:22:01;;;;;;;2.13;1.43;;;8.60;98.00;;;;;;5032895;28;20864;-70
2023/03/13 00:24:28;;;;;;;9.83;3.70;;;8.60;98.00;;;;;;5032974;28;20860;-70
2023/03/13 00:27:01;;;;;;;4.97;1.90;;;8.50;98.00;;;;;;5032825;28;20828;-70
2023/03/13 00:29:30;;;;;;;2.53;1.83;;;8.50;98.00;;;;;;5032546;28;20456;-70
2023/03/13 00:31:58;;;;;;;1.83;1.50;;;8.60;98.00;;;;;;5032797;28;20465;-70
2023/03/13 00:34:26;;;;;;;1.97;1.57;;;8.50;98.00;;;;;;5032911;28;20464;-70
2023/03/13 00:36:54;;;;;;;2.70;1.83;;;8.50;98.00;;;;;;5032741;28;20502;-69
2023/03/13 00:39:26;;;;;;;1.67;1.47;;;8.60;98.00;;;;;;5032762;28;20466;-70
2023/03/13 00:41:53;;;;;;;1.57;1.50;;;8.50;98.00;;;;;;5032794;28;20506;-69
2023/03/13 00:44:21;;;;;;;1.80;1.60;;;8.50;98.00;;;;;;5032872;28;20968;-69
2023/03/13 00:46:49;;;;;;;5.50;2.03;;;8.30;98.00;;;;;;5032679;28;20473;-69
2023/03/13 00:49:16;;;;;;;3.70;1.87;;;8.30;98.00;;;;;;5032619;28;20500;-70
2023/03/13 00:51:43;;;;;;;1.67;1.20;;;8.30;98.00;;;;;;5032635;28;20450;-70
2023/03/13 00:54:10;;;;;;;8.00;1.90;;;8.20;98.00;;;;;;5032344;28;20454;-70
2023/03/13 00:56:44;;;;;;;1.63;1.37;;;8.30;98.00;;;;;;5032148;28;20463;-69
2023/03/13 00:59:11;;;;;;;4.73;1.60;;;8.30;98.00;;;;;;5032688;28;20877;-70
2023/03/13 01:01:39;;;;;;;2.00;1.70;;;8.30;98.00;;;;;;5032464;28;20456;-70
2023/03/13 01:04:09;;;;;;;2.93;1.30;;;8.30;98.00;;;;;;5031858;28;20463;-70
2023/03/13 01:06:39;;;;;;;2.27;1.33;;;8.30;98.00;;;;;;5032500;28;20458;-70
2023/03/13 01:09:07;;;;;;;2.13;1.40;;;8.30;98.00;;;;;;5032625;28;20491;-70
2023/03/13 01:11:36;;;;;;;3.20;1.30;;;8.20;98.00;;;;;;5032356;28;20468;-70
2023/03/13 01:14:06;;;;;;;4.60;1.43;;;8.30;98.00;;;;;;5032265;28;20948;-70
2023/03/13 01:16:35;;;;;;;1.50;1.43;;;8.40;98.00;;;;;;5031223;28;20472;-70
2023/03/13 01:19:06;;;;;;;4.20;2.13;;;8.40;98.00;;;;;;5032204;28;20533;-70
2023/03/13 01:21:33;;;;;;;2.30;1.20;;;8.50;98.00;;;;;;5032142;28;20465;-69
2023/03/13 01:24:00;;;;;;;3.00;1.73;;;8.30;98.00;;;;;;5032144;28;20822;-69
2023/03/13 01:26:28;;;;;;;5.67;2.17;;;8.10;98.00;;;;;;5031900;28;20455;-70
2023/03/13 01:28:56;;;;;;;2.50;1.40;;;8.00;98.00;;;;;;5031785;28;20488;-70
2023/03/13 01:31:26;;;;;;;4.50;1.97;;;8.00;98.00;;;;;;5031844;28;20525;-70
2023/03/13 01:33:56;;;;;;;3.57;1.90;;;8.10;98.00;;;;;;5032013;28;20840;-70
2023/03/13 01:36:26;;;;;;;3.00;1.70;;;8.10;98.00;;;;;;5031895;28;20941;-70
2023/03/13 01:38:55;;;;;;;4.17;1.43;;;8.10;98.00;;;;;;5031841;28;20458;-69
2023/03/13 01:41:23;;;;;;;4.03;1.50;;;8.10;98.00;;;;;;5031747;28;20463;-69
2023/03/13 01:43:51;;;;;;;1.70;1.60;;;8.10;98.00;;;;;;5032055;28;20480;-70
2023/03/13 01:46:20;;;;;;;2.13;1.40;;;8.10;98.00;;;;;;5031814;28;21155;-69
2023/03/13 01:48:54;;;;;;;3.63;1.87;;;8.10;98.00;;;;;;5031891;28;20489;-70
2023/03/13 01:51:26;;;;;;;5.03;2.10;;;8.00;98.00;;;;;;5031657;28;20455;-69
2023/03/13 01:53:59;;;;;;;6.37;1.80;;;8.00;98.00;;;;;;5031925;28;20462;-70
2023/03/13 01:56:32;;;;;;;4.37;1.43;;;8.10;98.00;;;;;;5031756;28;20460;-70
2023/03/13 01:58:59;;;;;;;2.10;1.37;;;8.20;98.00;;;;;;5031959;28;20464;-70
2023/03/13 02:01:27;;;;;;;2.87;1.57;;;8.20;98.00;;;;;;5031757;28;20455;-70
2023/03/13 02:03:56;;;;;;;2.80;1.57;;;8.10;98.00;;;;;;5031880;28;20484;-70
2023/03/13 02:06:28;;;;;;;1.63;1.30;;;8.00;98.00;;;;;;5031934;28;20490;-70
2023/03/13 02:08:58;;;;;;;3.30;1.60;;;7.80;98.00;;;;;;5031892;28;20501;-70
2023/03/13 02:11:31;;;;;;;2.73;1.60;;;7.80;98.00;;;;;;5030707;28;20461;-69
2023/03/13 02:14:00;;;;;;;4.40;2.00;;;7.80;98.00;;;;;;5031613;28;20835;-70
2023/03/13 02:16:28;;;;;;;6.83;1.40;;;7.80;98.00;;;;;;5034510;28;20455;-69
2023/03/13 02:18:55;;;;;;;1.93;1.50;;;7.70;98.00;;;;;;5035336;28;20469;-69
2023/03/13 02:21:37;;;;;;;1.63;1.50;;;7.60;98.00;;;;;;5035335;28;20464;-69
2023/03/13 02:24:11;;;;;;;2.13;1.73;;;7.70;98.00;;;;;;5035444;28;20828;-70
2023/03/13 02:26:40;;;;;;;5.13;2.27;;;7.70;98.00;;;;;;5035315;28;20469;-69
2023/03/13 02:29:08;;;;;;;10.13;2.30;;;7.70;98.00;;;;;;5034969;28;20485;-69
2023/03/13 02:31:35;;;;;;;2.57;1.70;;;7.80;98.00;;;;;;5034944;28;20465;-70
2023/03/13 02:34:03;;;;;;;3.73;1.53;;;7.70;98.00;;;;;;5035243;28;20491;-70
2023/03/13 02:36:31;;;;;;;2.30;1.67;;;7.60;98.00;;;;;;5035175;28;20465;-70
2023/03/13 02:39:04;;;;;;;5.90;2.07;;;7.60;98.00;;;;;;5035097;28;20486;-70
2023/03/13 02:41:33;;;;;;;6.07;2.03;;;7.60;98.00;;;;;;5034338;28;20461;-70
2023/03/13 02:44:01;;;;;;;1.80;1.40;;;7.70;98.00;;;;;;5034950;28;20458;-69
2023/03/13 02:46:28;;;;;;;1.90;1.47;;;7.80;98.00;;;;;;5034853;28;20469;-70
2023/03/13 02:48:58;;;;;;;1.47;1.43;;;7.80;98.00;;;;;;5034912;28;20489;-70
2023/03/13 02:51:29;;;;;;;1.40;1.40;;;7.90;98.00;;;;;;5034847;28;20464;-70
2023/03/13 02:54:00;;;;;;;2.50;1.77;;;7.90;98.00;;;;;;5034866;28;20471;-70
2023/03/13 02:56:29;;;;;;;2.17;1.63;;;7.80;98.00;;;;;;5034808;28;20462;-70
2023/03/13 02:58:57;;;;;;;2.53;2.17;;;7.80;98.00;;;;;;5034720;28;20466;-70
2023/03/13 03:01:27;;;;;;;2.47;1.27;;;7.80;98.00;;;;;;5033569;28;20548;-70
2023/03/13 03:03:54;;;;;;;2.27;1.60;;;7.70;98.00;;;;;;5034811;28;20465;-69
2023/03/13 03:06:21;;;;;;;3.57;2.00;;;7.60;98.00;;;;;;5034481;28;21196;-69
2023/03/13 03:08:48;;;;;;;3.17;1.53;;;7.60;98.00;;;;;;5034447;28;20481;-70
2023/03/13 03:11:16;;;;;;;1.97;1.63;;;7.50;98.00;;;;;;5034483;28;20462;-70
2023/03/13 03:13:43;;;;;;;2.70;1.63;;;7.70;98.00;;;;;;5034413;28;20462;-69
2023/03/13 03:16:12;;;;;;;3.17;1.50;;;7.80;98.00;;;;;;5034136;28;20450;-70
2023/03/13 03:18:41;;;;;;;1.73;1.47;;;7.90;98.00;;;;;;5033975;28;20481;-70
2023/03/13 03:21:08;;;;;;;3.27;1.40;;;7.90;98.00;;;;;;5034266;28;20937;-70
2023/03/13 03:23:36;;;;;;;4.13;1.93;;;7.90;98.00;;;;;;5032866;28;20463;-69
2023/03/13 03:26:05;;;;;;;1.83;1.50;;;7.80;98.00;;;;;;5033760;28;20450;-69
2023/03/13 03:28:33;;;;;;;2.47;1.53;;;7.70;98.00;;;;;;5033954;28;20485;-70
2023/03/13 03:31:05;;;;;;;7.13;2.37;;;7.60;98.00;;;;;;5034075;28;20470;-69
2023/03/13 03:33:32;;;;;;;2.03;1.40;;;7.60;98.00;;;;;;5033711;28;20461;-70
2023/03/13 03:36:03;;;;;;;2.90;2.30;;;7.60;98.00;;;;;;5034001;28;20967;-70
2023/03/13 03:38:30;;;;;;;4.27;1.77;;;7.60;98.00;;;;;;5033897;28;20460;-69
2023/03/13 03:40:59;;;;;;;2.60;2.03;;;7.70;98.00;;;;;;5033841;28;20477;-69
2023/03/13 03:43:26;;;;;;;12.90;2.20;;;7.80;98.00;;;;;;5033918;28;20453;-70
2023/03/13 03:45:53;;;;;;;2.90;1.83;;;7.80;98.00;;;;;;5033728;28;20458;-69
2023/03/13 03:48:20;;;;;;;2.90;1.63;;;7.60;98.00;;;;;;5033718;28;20484;-69
2023/03/13 03:50:47;;;;;;;4.70;1.93;;;7.60;98.00;;;;;;5033726;28;20456;-70
2023/03/13 03:53:17;;;;;;;5.77;3.50;;;7.50;98.00;;;;;;5033849;28;20473;-69
2023/03/13 03:55:45;;;;;;;2.27;1.73;;;7.40;98.00;;;;;;5032927;28;20463;-69
2023/03/13 03:58:13;;;;;;;9.00;2.17;;;7.50;98.00;;;;;;5033034;28;20462;-69
2023/03/13 04:00:43;;;;;;;2.33;1.43;;;7.50;98.00;;;;;;5033049;28;20839;-69
2023/03/13 04:03:11;;;;;;;3.53;1.70;;;7.50;98.00;;;;;;5033733;28;20468;-70
2023/03/13 04:05:38;;;;;;;2.70;1.63;;;7.50;98.00;;;;;;5033411;28;20552;-70
2023/03/13 04:08:05;;;;;;;2.50;1.87;;;7.60;98.00;;;;;;5033460;28;20468;-70
2023/03/13 04:10:34;;;;;;;2.77;1.50;;;7.70;98.00;;;;;;5033291;28;20470;-70
2023/03/13 04:13:01;;;;;;;4.43;1.60;;;7.80;98.00;;;;;;5033244;28;20479;-69
2023/03/13 04:15:28;;;;;;;2.80;1.43;;;7.80;98.00;;;;;;5033043;28;20474;-69
2023/03/13 04:17:55;;;;;;;4.13;1.97;;;7.70;98.00;;;;;;5031986;28;20464;-70
2023/03/13 04:20:23;;;;;;;1.63;1.57;;;7.70;98.00;;;;;;5033096;28;20807;-70
2023/03/13 04:22:50;;;;;;;2.90;1.70;;;7.70;98.00;;;;;;5033105;28;20949;-69
2023/03/13 04:25:17;;;;;;;2.20;1.67;;;7.70;98.00;;;;;;5033061;28;20462;-69
2023/03/13 04:27:45;;;;;;;1.30;1.30;;;7.70;98.00;;;;;;5033005;28;20461;-70
2023/03/13 04:30:13;;;;;;;4.27;1.33;;;7.70;98.00;;;;;;5032491;28;20488;-70
2023/03/13 04:32:41;;;;;;;2.33;1.40;;;7.80;98.00;;;;;;5032993;28;20466;-70
2023/03/13 04:35:08;;;;;;;2.97;1.47;;;7.90;98.00;;;;;;5033066;28;20550;-70
2023/03/13 04:37:36;;;;;;;1.20;1.10;;;8.00;98.00;;;;;;5031787;28;20470;-69
2023/03/13 04:40:05;;;;;;;1.93;1.50;;;8.10;98.00;;;;;;5031632;28;20458;-70
2023/03/13 04:42:32;;;;;;;2.17;1.30;;;8.30;98.00;;;;;;5032774;28;20564;-70
2023/03/13 04:45:01;;;;;;;2.63;1.53;;;8.20;98.00;;;;;;5032685;28;20485;-70
2023/03/13 04:47:28;;;;;;;2.17;1.77;;;8.20;98.00;;;;;;5032534;28;20450;-70
2023/03/13 04:49:55;;;;;;;5.37;1.40;;;8.20;98.00;;;;;;5032724;28;20844;-69
2023/03/13 04:52:22;;;;;;;5.33;1.87;;;8.20;98.00;;;;;;5032616;28;20511;-70
2023/03/13 04:54:51;;;;;;;8.20;1.93;;;8.10;98.00;;;;;;5032707;28;20460;-70
2023/03/13 04:57:18;;;;;;;1.83;1.50;;;8.20;98.00;;;;;;5032497;28;20458;-69
2023/03/13 04:59:45;;;;;;;1.87;1.30;;;8.20;98.00;;;;;;5032479;28;20811;-70
2023/03/13 05:02:14;;;;;;;2.23;1.47;;;8.20;98.00;;;;;;5032706;28;20482;-70
2023/03/13 05:04:41;;;;;;;1.83;1.20;;;8.30;98.00;;;;;;5031289;28;20949;-70
2023/03/13 05:07:08;;;;;;;3.03;1.37;;;8.40;98.00;;;;;;5032401;28;20976;-70
2023/03/13 05:09:35;;;;;;;1.30;1.20;;;8.50;98.00;;;;;;5031006;28;20989;-70
2023/03/13 05:12:02;;;;;;;2.87;1.70;;;8.50;98.00;;;;;;5032038;28;20861;-69
2023/03/13 05:14:29;;;;;;;1.67;1.50;;;8.50;98.00;;;;;;5030923;28;20470;-70
2023/03/13 05:16:56;;;;;;;1.77;1.40;;;8.60;98.00;;;;;;5031915;28;20478;-70
2023/03/13 05:19:25;;;;;;;2.03;1.20;;;8.70;98.00;;;;;;5032091;28;20458;-70
2023/03/13 05:21:54;;;;;;;2.13;1.60;;;8.90;98.00;;;;;;5032159;28;20458;-70
2023/03/13 05:24:21;;;;;;;2.00;1.40;;;9.10;98.00;;;;;;5030734;28;20459;-70
2023/03/13 05:26:49;;;;;;;2.63;1.30;;;9.40;98.00;;;;;;5030746;28;20466;-69
2023/03/13 05:29:16;;;;;;;1.30;1.10;;;9.70;98.00;;;;;;5032242;28;20493;-70
2023/03/13 05:31:43;;;;;;;2.43;1.20;;;10.00;98.00;;;;;;5031894;28;20470;-69
2023/03/13 05:34:11;;;;;;;1.30;1.10;;;10.30;98.00;;;;;;5032113;28;20462;-70
2023/03/13 05:36:39;;;;;;;1.20;1.00;;;10.50;98.00;;;;;;5031893;28;20536;-70
2023/03/13 05:39:06;;;;;;;3.80;1.30;;;10.80;98.00;;;;;;5031951;28;20516;-70
2023/03/13 05:41:33;;;;;;;1.17;1.00;;;11.00;98.00;;;;;;5031902;28;20451;-69
2023/03/13 05:44:00;;;;;;;1.53;1.17;;;11.20;98.00;;;;;;5031912;28;20454;-69
2023/03/13 05:46:27;;;;;;;2.33;1.37;;;11.20;98.00;;;;;;5031817;28;21132;-69
2023/03/13 05:48:55;;;;;;;1.20;1.10;;;11.40;98.00;;;;;;5032708;28;20494;-70
2023/03/13 05:51:22;;;;;;;1.80;1.20;;;11.50;98.00;;;;;;5035878;28;20465;-70
2023/03/13 05:53:50;;;;;;;1.30;1.13;;;11.50;98.00;;;;;;5035969;28;20871;-70
2023/03/13 05:56:17;;;;;;;1.20;1.00;;;11.60;98.00;;;;;;5035858;28;20932;-71
2023/03/13 05:58:45;;;;;;;1.77;1.30;;;11.70;98.00;;;;;;5036151;28;20464;-70
2023/03/13 06:01:13;;;;;;;1.40;1.13;;;11.60;98.00;;;;;;5035946;28;21010;-70
2023/03/13 06:03:40;;;;;;;1.97;1.10;;;11.70;98.00;;;;;;5035825;28;20466;-70
2023/03/13 06:06:08;;;;;;;1.20;1.10;;;11.70;98.00;;;;;;5035431;28;20513;-71
2023/03/13 06:08:35;;;;;;;2.23;1.43;;;11.70;98.00;;;;;;5035685;28;20470;-71
2023/03/13 06:11:03;;;;;;;1.93;1.50;;;11.70;98.00;;;;;;5035586;28;20467;-70
2023/03/13 06:13:31;;;;;;;3.33;1.40;;;11.70;98.00;;;;;;5035569;28;20470;-70
2023/03/13 06:16:01;;;;;;;2.03;1.37;;;11.70;98.00;;;;;;5035341;28;20466;-70
2023/03/13 06:18:28;;;;;;;2.80;1.30;;;11.80;98.00;;;;;;5035445;28;20479;-70
2023/03/13 06:20:59;;;;;;;1.60;1.30;;;11.80;98.00;;;;;;5035517;28;20826;-70
2023/03/13 06:23:27;;;;;;;1.20;1.07;;;11.90;98.00;;;;;;5035534;28;20465;-71
2023/03/13 06:25:54;;;;;;;1.33;1.20;;;11.90;98.00;;;;;;5035348;28;20477;-70
2023/03/13 06:28:23;;;;;;;1.30;1.10;;;11.90;98.00;;;;;;5035350;28;20943;-70
2023/03/13 06:30:50;;;;;;;1.40;1.20;;;11.90;98.00;;;;;;5035064;28;20494;-70
2023/03/13 06:33:17;;;;;;;1.30;1.10;;;12.00;98.00;;;;;;5035217;28;20465;-70
2023/03/13 06:35:47;;;;;;;3.27;1.30;;;12.00;98.00;;;;;;5034741;28;20461;-70
2023/03/13 06:38:14;;;;;;;1.20;1.10;;;12.10;98.00;;;;;;5035132;28;20474;-70
2023/03/13 06:40:42;;;;;;;1.50;1.10;;;12.10;98.00;;;;;;5035189;28;20496;-69
2023/03/13 06:43:09;;;;;;;1.20;1.00;;;12.10;98.00;;;;;;5035184;28;20935;-70
2023/03/13 06:45:37;;;;;;;1.30;1.30;;;12.20;98.00;;;;;;5035024;28;20879;-70
2023/03/13 06:48:06;;;;;;;2.30;1.37;;;12.20;98.00;;;;;;5035088;28;20884;-70
2023/03/13 06:50:33;;;;;;;1.53;1.27;;;12.20;98.00;;;;;;5034933;28;20492;-70
2023/03/13 06:53:00;;;;;;;1.20;1.10;;;12.30;98.00;;;;;;5034991;28;20479;-70
2023/03/13 06:55:27;;;;;;;1.20;1.13;;;12.40;98.00;;;;;;5034778;28;20457;-70
2023/03/13 06:57:54;;;;;;;1.83;1.20;;;12.50;98.00;;;;;;5034876;28;20487;-69
2023/03/13 07:00:22;;;;;;;1.50;1.20;;;12.60;98.00;;;;;;5034424;28;20465;-71
2023/03/13 07:02:51;;;;;;;1.60;1.10;;;12.60;98.00;;;;;;5034507;28;20961;-66
2023/03/13 07:05:18;;;;;;;2.00;1.20;;;12.70;98.00;;;;;;5034406;28;20463;-66
2023/03/13 07:07:45;;;;;;;1.20;1.00;;;12.70;98.00;;;;;;5034165;28;20466;-66
2023/03/13 07:10:13;;;;;;;1.30;1.20;;;12.80;98.00;;;;;;5034210;28;20487;-66
2023/03/13 07:12:40;;;;;;;1.20;1.20;;;12.80;98.00;;;;;;5034465;28;20461;-68
2023/03/13 07:15:09;;;;;;;1.30;1.07;;;12.90;98.00;;;;;;5034378;28;20462;-66
2023/03/13 07:17:36;;;;;;;1.30;1.10;;;12.90;98.00;;;;;;5034118;28;20474;-66
2023/03/13 07:20:08;;;;;;;2.23;1.20;;;12.80;98.00;;;;;;5034389;28;20982;-67
2023/03/13 07:22:35;;;;;;;1.77;1.20;;;12.80;98.00;;;;;;5034178;28;20506;-66
2023/03/13 07:25:03;;;;;;;1.30;1.10;;;12.90;98.00;;;;;;5034059;28;20547;-67
2023/03/13 07:27:30;;;;;;;1.30;1.20;;;12.90;98.00;;;;;;5034313;28;20456;-67
2023/03/13 07:29:58;;;;;;;1.40;1.10;;;12.80;98.00;;;;;;5032907;28;21010;-65
2023/03/13 07:32:27;;;;;;;2.20;1.23;;;12.90;98.00;;;;;;5034289;28;20597;-65
2023/03/13 07:34:55;;;;;;;1.20;1.03;;;12.80;98.00;;;;;;5034048;28;20457;-66
2023/03/13 07:37:23;;;;;;;1.20;1.00;;;12.90;98.00;;;;;;5034105;28;20467;-67
2023/03/13 07:39:50;;;;;;;1.73;1.20;;;13.00;98.00;;;;;;5034155;28;20456;-67
2023/03/13 07:42:17;;;;;;;1.50;1.23;;;13.00;98.00;;;;;;5032826;28;20854;-66
2023/03/13 07:44:45;;;;;;;1.87;1.13;;;13.00;98.00;;;;;;5034059;28;20934;-66
2023/03/13 07:47:12;;;;;;;1.20;1.00;;;13.10;98.00;;;;;;5033848;28;20489;-65
2023/03/13 07:49:45;;;;;;;1.30;1.10;;;13.10;98.00;;;;;;5033674;28;20547;-66
2023/03/13 07:52:12;;;;;;;1.40;1.10;;;13.10;98.00;;;;;;5032911;28;20863;-66
2023/03/13 07:54:41;;;;;;;1.50;1.20;;;13.20;98.00;;;;;;5033846;28;20454;-66
2023/03/13 07:57:08;;;;;;;1.20;1.10;;;13.30;98.00;;;;;;5033982;28;20945;-67
2023/03/13 07:59:35;;;;;;;1.60;1.10;;;13.20;98.00;;;;;;5033591;28;20454;-65
2023/03/13 08:02:04;;;;;;;1.20;1.20;;;13.20;98.00;;;;;;5033651;28;20509;-65
2023/03/13 08:04:31;;;;;;;1.63;1.20;;;13.20;98.00;;;;;;5033539;28;20464;-66
2023/03/13 08:06:59;;;;;;;1.40;1.10;;;13.20;98.00;;;;;;5033311;28;20457;-66
2023/03/13 08:09:26;;;;;;;1.30;1.10;;;13.20;98.00;;;;;;5033160;28;21118;-66
2023/03/13 08:11:54;;;;;;;1.40;1.10;;;13.30;98.00;;;;;;5033023;28;20465;-66
2023/03/13 08:14:23;;;;;;;1.30;1.10;;;13.30;98.00;;;;;;5047495;28;20462;-66
2023/03/13 08:16:50;;;;;;;1.40;1.23;;;13.30;98.00;;;;;;5034618;28;20466;-67
2023/03/13 08:19:17;;;;;;;2.67;1.23;;;13.30;98.00;;;;;;5033793;28;20460;-67
2023/03/13 08:21:46;;;;;;;1.83;1.30;;;13.30;98.00;;;;;;5047157;28;20470;-66
2023/03/13 08:24:13;;;;;;;1.30;1.23;;;13.40;98.00;;;;;;5052880;28;20943;-68
2023/03/13 08:26:42;;;;;;;1.43;1.23;;;13.50;98.00;;;;;;5034145;28;20824;-68
2023/03/13 08:29:14;;;;;;;3.50;1.50;;;13.60;98.00;;;;;;5053013;28;20463;-70
2023/03/13 08:31:46;;;;;;;1.30;1.10;;;13.90;98.00;;;;;;5036577;28;20578;-68
2023/03/13 08:34:14;;;;;;;1.50;1.20;;;14.40;98.00;;;;;;5018985;28;20453;-69
2023/03/13 08:36:41;;;;;;;1.50;1.40;;;14.80;98.00;;;;;;5052556;28;20458;-66
2023/03/13 08:39:12;;;;;;;1.20;1.13;;;15.30;98.00;;;;;;5052743;28;20462;-61
2023/03/13 08:41:40;;;;;;;1.93;1.27;;;15.50;98.00;;;;;;5052533;28;20458;-63
2023/03/13 08:44:10;;;;;;;1.30;1.10;;;15.40;98.00;;;;;;5052782;28;20474;-65
2023/03/13 08:46:38;;;;;;;2.17;1.57;;;15.50;98.00;;;;;;5052521;28;21050;-63
2023/03/13 08:49:08;;;;;;;1.30;1.10;;;15.40;98.00;;;;;;5052658;28;20468;-65
2023/03/13 08:51:36;;;;;;;1.20;1.10;;;15.30;98.00;;;;;;5052424;28;20496;-62
2023/03/13 08:54:04;;;;;;;2.03;1.30;;;15.40;98.00;;;;;;5052516;28;20523;-66
2023/03/13 08:56:34;;;;;;;1.27;1.07;;;15.50;98.00;;;;;;5052409;28;20449;-67
2023/03/13 08:59:03;;;;;;;1.90;1.47;;;15.60;98.00;;;;;;5052345;28;20467;-65
2023/03/13 09:01:32;;;;;;;2.13;1.30;;;15.40;98.00;;;;;;5052389;28;20484;-62
2023/03/13 09:04:02;;;;;;;1.70;1.40;;;15.30;98.00;;;;;;5052116;28;20453;-63
2023/03/13 09:06:29;;;;;;;1.40;1.20;;;15.20;98.00;;;;;;5052063;28;20788;-67
2023/03/13 09:08:57;;;;;;;1.50;1.20;;;15.20;98.00;;;;;;5051376;28;20461;-66
2023/03/13 09:11:25;;;;;;;1.20;1.10;;;15.20;98.00;;;;;;5051478;28;20521;-64
2023/03/13 09:13:54;;;;;;;1.40;1.20;;;15.10;98.00;;;;;;5052092;28;20462;-68
2023/03/13 09:16:22;;;;;;;1.50;1.20;;;15.10;98.00;;;;;;5051766;28;20870;-64
2023/03/13 09:18:50;;;;;;;1.47;1.20;;;15.20;98.00;;;;;;5051933;28;20518;-62
2023/03/13 09:21:21;;;;;;;1.60;1.20;;;15.10;98.00;;;;;;5051855;28;20860;-64
2023/03/13 09:23:48;;;;;;;1.50;1.30;;;15.20;98.00;;;;;;5051359;28;20453;-64
2023/03/13 09:26:17;;;;;;;1.20;1.10;;;15.20;98.00;;;;;;5051146;28;20451;-65
2023/03/13 09:28:45;;;;;;;2.60;1.40;;;15.20;98.00;;;;;;5051051;28;20457;-65
2023/03/13 09:31:14;;;;;;;1.77;1.20;;;15.20;98.00;;;;;;5051071;28;20489;-63
2023/03/13 09:33:43;;;;;;;1.30;1.20;;;15.20;98.00;;;;;;5051850;28;20873;-63
2023/03/13 09:36:11;;;;;;;1.40;1.20;;;15.20;98.00;;;;;;5051825;28;20462;-66
2023/03/13 09:38:40;;;;;;;1.30;1.20;;;15.20;98.00;;;;;;5051742;28;20467;-65
2023/03/13 09:41:22;;;;;;;1.30;1.20;;;15.20;98.00;;;;;;5052081;28;20457;-66
2023/03/13 09:43:56;;;;;;;1.20;1.00;;;15.30;98.00;;;;;;5051713;28;20461;-65
2023/03/13 09:46:27;;;;;;;1.43;1.20;;;15.40;98.00;;;;;;5034638;28;20455;-65
2023/03/13 09:48:59;;;;;;;1.60;1.20;;;15.40;98.00;;;;;;5051715;28;20461;-66
2023/03/13 09:51:29;;;;;;;1.40;1.40;;;15.50;98.00;;;;;;5051625;28;20488;-66
2023/03/13 09:54:06;;;;;;;2.13;1.20;;;15.50;98.00;;;;;;5051613;28;20456;-66
2023/03/13 09:56:40;;;;;;;1.40;1.13;;;15.60;98.00;;;;;;5051762;28;20456;-67
2023/03/13 09:59:16;;;;;;;1.57;1.27;;;15.60;98.00;;;;;;5051533;28;20459;-66
2023/03/13 10:01:45;;;;;;;1.90;1.30;;;15.70;98.00;;;;;;5051694;28;20457;-67
2023/03/13 10:04:27;;;;;;;1.80;1.50;;;15.60;98.00;;;;;;5051519;28;20476;-66
2023/03/13 10:06:54;;;;;;;1.60;1.33;;;15.60;98.00;;;;;;5051175;28;20522;-67
2023/03/13 10:09:28;;;;;;;1.77;1.30;;;15.60;98.00;;;;;;5051506;28;20461;-66
2023/03/13 10:12:04;;;;;;;1.30;1.20;;;15.60;98.00;;;;;;5051040;28;20492;-66
2023/03/13 10:14:34;;;;;;;1.90;1.50;;;15.80;98.00;;;;;;5051169;28;20569;-66
2023/03/13 10:17:10;;;;;;;1.30;1.10;;;15.80;98.00;;;;;;5051145;28;20979;-66
2023/03/13 10:19:42;;;;;;;2.10;1.30;;;15.80;98.00;;;;;;5051087;28;20466;-67
2023/03/13 10:22:14;;;;;;;1.30;1.30;;;16.00;98.00;;;;;;5051105;28;20461;-66
2023/03/13 10:24:50;;;;;;;1.33;1.20;;;16.30;98.00;;;;;;5051415;28;20465;-66
2023/03/13 10:27:17;;;;;;;2.33;1.30;;;16.60;98.00;;;;;;5033744;28;20582;-67
2023/03/13 10:29:44;;;;;;;1.57;1.20;;;16.60;98.00;;;;;;5051176;28;20461;-65
2023/03/13 10:32:14;;;;;;;2.70;1.60;;;16.90;98.00;;;;;;5050931;28;20489;-67
2023/03/13 10:34:51;;;;;;;1.50;1.30;;;17.30;98.00;;;;;;5051149;28;20951;-67
2023/03/13 10:37:22;;;;;;;1.43;1.37;;;17.50;98.00;;;;;;5054085;28;20882;-66
2023/03/13 10:39:51;;;;;;;1.50;1.30;;;17.60;98.00;;;;;;5055033;28;20843;-66
2023/03/13 10:42:26;;;;;;;2.10;1.40;;;17.60;98.00;;;;;;5055166;28;20943;-65
2023/03/13 10:44:59;;;;;;;1.77;1.33;;;17.70;98.00;;;;;;5037883;28;20460;-63
2023/03/13 10:47:26;;;;;;;2.57;1.60;;;17.80;98.00;;;;;;5054392;28;20971;-64
2023/03/13 10:49:57;;;;;;;3.73;1.60;;;17.90;98.00;;;;;;5054855;28;20454;-65
2023/03/13 10:52:41;;;;;;;1.57;1.40;;;18.00;98.00;;;;;;5054762;28;20488;-64
2023/03/13 10:55:13;;;;;;;2.23;1.60;;;18.00;98.00;;;;;;5054942;28;20480;-67
2023/03/13 10:57:43;;;;;;;1.67;1.60;;;17.90;98.00;;;;;;5054745;28;20454;-65
2023/03/13 11:00:36;;;;;;;4.43;1.83;;;17.90;98.00;;;;;;5055001;28;20461;-64
2023/03/13 11:03:07;;;;;;;4.60;1.67;;;17.80;98.00;;;;;;5054431;28;20955;-64
2023/03/13 11:05:41;;;;;;;2.03;1.67;;;17.90;98.00;;;;;;5054336;28;20450;-63
2023/03/13 11:08:21;;;;;;;1.53;1.30;;;17.90;98.00;;;;;;5054373;28;20480;-63
2023/03/13 11:10:55;;;;;;;3.10;2.10;;;17.80;98.00;;;;;;5054144;28;21026;-63
2023/03/13 11:13:35;;;;;;;3.50;2.07;;;17.90;98.00;;;;;;5054148;28;20458;-63
2023/03/13 11:16:17;;;;;;;2.30;1.40;;;18.00;98.00;;;;;;5054102;28;20557;-64
2023/03/13 11:19:02;;;;;;;1.90;1.47;;;18.60;98.00;;;;;;5054039;28;20984;-64
2023/03/13 11:21:36;;;;;;;3.77;1.67;;;18.90;98.00;;;;;;5054143;28;20461;-66
2023/03/13 11:24:11;;;;;;;2.70;1.70;;;19.10;98.00;;;;;;5054173;28;20465;-66
2023/03/13 11:26:48;;;;;;;2.40;1.60;;;19.20;98.00;;;;;;5054128;28;20927;-64
2023/03/13 11:29:24;;;;;;;2.70;1.83;;;19.20;98.00;;;;;;5054088;28;20453;-63
2023/03/13 11:31:58;;;;;;;3.00;1.77;;;19.10;98.00;;;;;;5036942;28;20512;-63
2023/03/13 11:34:33;;;;;;;1.90;1.50;;;19.00;98.00;;;;;;5036060;28;20967;-64
2023/03/13 11:37:03;;;;;;;2.63;1.90;;;19.00;98.00;;;;;;5053824;28;20461;-62
2023/03/13 11:39:53;;;;;;;2.30;1.67;;;19.10;98.00;;;;;;5053972;28;20452;-64
2023/03/13 11:42:46;;;;;;;3.40;1.83;;;18.90;98.00;;;;;;5036082;28;20457;-64
2023/03/13 11:45:29;;;;;;;2.73;1.90;;;18.70;98.00;;;;;;5053998;28;20449;-64
2023/03/13 11:48:04;;;;;;;1.70;1.57;;;18.80;98.00;;;;;;5053481;28;20458;-64
2023/03/13 11:50:37;;;;;;;1.60;1.60;;;19.10;98.00;;;;;;5053704;28;20464;-63
2023/03/13 11:53:20;;;;;;;2.20;1.80;;;19.90;98.00;;;;;;5053732;28;20468;-64
2023/03/13 11:56:09;;;;;;;1.87;1.63;;;20.20;98.00;;;;;;5053728;28;21004;-64
2023/03/13 11:59:07;;;;;;;5.53;2.00;;;20.10;98.00;;;;;;5052649;28;20951;-65
2023/03/13 12:01:38;;;;;;;2.27;1.73;;;20.20;98.00;;;;;;5053434;28;20453;-64
2023/03/13 12:04:11;;;;;;;2.33;1.80;;;20.80;98.00;;;;;;5053251;28;20464;-63
2023/03/13 12:06:41;;;;;;;4.53;2.07;;;21.30;97.70;;;;;;5053208;28;21038;-64
2023/03/13 12:09:14;;;;;;;2.10;1.50;;;21.90;95.20;;;;;;5053265;28;20512;-64
2023/03/13 12:11:48;;;;;;;2.40;1.80;;;22.20;94.90;;;;;;5053020;28;20889;-64
2023/03/13 12:14:22;;;;;;;3.17;1.80;;;22.50;94.30;;;;;;5053136;28;20457;-65
2023/03/13 12:16:55;;;;;;;2.50;1.90;;;22.70;93.40;;;;;;5052750;28;20466;-65
2023/03/13 12:19:28;;;;;;;3.07;1.80;;;23.00;92.40;;;;;;5035516;28;20481;-64
2023/03/13 12:21:58;;;;;;;2.00;1.60;;;23.10;91.00;;;;;;5052879;28;20457;-64
2023/03/13 12:24:31;;;;;;;2.40;1.90;;;23.10;92.70;;;;;;5052967;28;20453;-64
2023/03/13 12:27:02;;;;;;;1.77;1.60;;;23.10;92.30;;;;;;5052744;28;20458;-66
2023/03/13 12:29:41;;;;;;;1.67;1.60;;;23.00;91.80;;;;;;5052748;28;20497;-66
2023/03/13 12:32:15;;;;;;;3.77;1.70;;;23.00;91.30;;;;;;5052758;28;20490;-66
2023/03/13 12:34:53;;;;;;;2.50;1.73;;;22.60;91.80;;;;;;5052756;28;20477;-65
2023/03/13 12:37:25;;;;;;;2.63;1.53;;;22.70;93.50;;;;;;5052717;28;20492;-64
2023/03/13 12:39:58;;;;;;;3.30;2.00;;;22.90;91.40;;;;;;5035452;28;20963;-66
2023/03/13 12:42:54;;;;;;;2.27;1.70;;;22.90;91.90;;;;;;5035390;28;20450;-64
2023/03/13 12:45:25;;;;;;;2.90;1.67;;;23.10;91.10;;;;;;5015323;28;20503;-65
2023/03/13 12:48:42;;;;;;;2.40;1.70;;;23.40;90.80;;;;;;5048798;28;20458;-63
2023/03/13 12:51:30;;;;;;;4.17;1.90;;;23.40;91.30;;;;;;4933016;29;20570;-64
2023/03/13 12:54:17;;;;;;;2.40;1.67;;;23.10;91.10;;;;;;5012929;28;20467;-65
2023/03/13 12:57:08;;;;;;;3.87;1.40;;;23.10;90.10;;;;;;5012894;28;20463;-64
2023/03/13 12:59:38;;;;;;;2.20;1.67;;;23.30;91.90;;;;;;5012189;28;20456;-64
2023/03/13 13:02:16;;;;;;;2.70;2.00;;;23.40;91.20;;;;;;5012663;28;20459;-65
2023/03/13 13:04:46;;;;;;;2.67;1.60;;;23.50;90.90;;;;;;5012487;28;20459;-65
2023/03/13 13:07:25;;;;;;;3.93;1.90;;;23.80;90.30;;;;;;5012429;28;20513;-65